Aeroporto :
LOGIN :

Iscrizione | Disclaimer

   EN    FR    IT 

 










Sommario :    VFR   VFR Marginale   IFR   IFR Intensivo   IFR Molto Intensivo
Visibilità : 
Base nubi : 
>= 8 km
>= 3000ft
5 / 8 km
1000 / 3000 ft
1500m / 5 km
500 / 1000 ft
800 / 1500m
200 / 500 ft
< 800m
< 200 ft
Simboli :   Temporali  Nebbia  Neve Forte  Precipitazioni Forti  Vento > 20 kt
SIGMETs :   Varie  Temporali  Ghiacco  Turbolenza  Onda orograficha  Ceneri Vulcaniche






- Altitudine del aeroporto : 308 ft
- Codice IATA : POZ


EPPO - Poznan-Lawica

ULTIMO METAR :
  • 221230Z 10013KT CAVOK 09/06 Q1014

METARs OBSOLETI :
  • 221200Z 12016KT CAVOK 09/06 Q1014
  • 221130Z 12013KT 9999 BKN049 09/06 Q1014
  • 221100Z 13014KT 9999 BKN048 09/06 Q1014
  • 221030Z 12014KT 9999 BKN048 08/06 Q1014
  • 221000Z 12014KT 9999 FEW014 08/06 Q1014

TAF TAF EPPO
Valido dal 22 a 12 ore il 23 a 12 ore UTC


221130Z 2212/2312 13013KT CAVOK
TEMPO 2222/2308 BKN012
TEMPO 2308/2312 14015G25KT



MetMap, La meteo Aeronautica in un colpo d'occhio ! - Copyright ORBIFLY Dicembre 2007 - Disclaimer

ORBIFLY MET'MAP TEAM :

Programmazione e sviluppo : Alexandra Zaïnal
Concezione e sviluppo : Baudouin d'Aumeries
Co-Programmazione e sviluppo : Marc-Olivier Méhu
Supporto tecnico e logistico : Manuel Goepfert
Aiuto per la traduzione : Arnaldo La Scala

Contatto : metmap@orbifly.com




FONTI E CREDITI :

   NOAA